Wetterdaten: Donnerstag, 29.01.2015
Datum Zeit Temp. A. Feuchte A. Luftdruck Regen Wind Richtung Richtung Sonnenschein ET UV Solar Taupunkt Windchill Windben Empfang
29.01.2015 00:00 -2,6 C 77 % 1001,2 hPa 0,0 l/m 0,0 km/h (0 Bft) SW 227 0 min 0,000 mm 0,0 UV-I 0 W/m -6,1 C -2,6 C 0,0 km/h (0 Bft) 0,00 %
29.01.2015 00:15 -2,2 C 77 % 1001,2 hPa 0,0 l/m 0,0 km/h (0 Bft) S 185 0 min 0,000 mm 0,0 UV-I 0 W/m -5,7 C -2,2 C 0,0 km/h (0 Bft) 0,00 %
29.01.2015 00:30 -2,0 C 77 % 1001,1 hPa 0,0 l/m 0,0 km/h (0 Bft) SW 222 0 min 0,000 mm 0,0 UV-I 0 W/m -5,5 C -2,0 C 0,0 km/h (0 Bft) 0,00 %
29.01.2015 00:45 -1,9 C 77 % 1000,7 hPa 0,0 l/m 0,0 km/h (0 Bft) S-SW 201 0 min 0,000 mm 0,0 UV-I 0 W/m -5,4 C -1,9 C 0,0 km/h (0 Bft) 0,00 %
29.01.2015 01:00 -1,9 C 77 % 1000,4 hPa 0,0 l/m 0,0 km/h (0 Bft) S-SW 211 0 min 0,000 mm 0,0 UV-I 0 W/m -5,4 C -1,9 C 0,0 km/h (0 Bft) 0,00 %
29.01.2015 01:15 -1,7 C 76 % 1000,4 hPa 0,0 l/m 0,0 km/h (0 Bft) S 189 0 min 0,000 mm 0,0 UV-I 0 W/m -5,4 C -1,7 C 0,0 km/h (0 Bft) 0,00 %
29.01.2015 01:30 -1,7 C 77 % 1000,6 hPa 0,0 l/m 0,0 km/h (0 Bft) SW 214 0 min 0,000 mm 0,0 UV-I 0 W/m -5,2 C -1,7 C 0,0 km/h (0 Bft) 0,00 %
29.01.2015 01:45 -1,7 C 78 % 1000,3 hPa 0,0 l/m 0,0 km/h (0 Bft) S-SW 207 0 min 0,000 mm 0,0 UV-I 0 W/m -5,0 C -1,7 C 0,0 km/h (0 Bft) 0,00 %
29.01.2015 02:00 -1,8 C 80 % 999,8 hPa 0,0 l/m 0,0 km/h (0 Bft) O 81 0 min 0,000 mm 0,0 UV-I 0 W/m -4,8 C -1,8 C 0,0 km/h (0 Bft) 0,00 %
29.01.2015 02:15 -1,6 C 81 % 999,8 hPa 0,0 l/m 0,0 km/h (0 Bft) S-SW 203 0 min 0,000 mm 0,0 UV-I 0 W/m -4,4 C -1,6 C 0,0 km/h (0 Bft) 0,00 %
29.01.2015 02:30 -1,8 C 82 % 999,6 hPa 0,0 l/m 0,0 km/h (0 Bft) S 175 0 min 0,000 mm 0,0 UV-I 0 W/m -4,5 C -1,8 C 0,0 km/h (0 Bft) 0,00 %
29.01.2015 02:45 -1,7 C 82 % 999,1 hPa 0,0 l/m 0,0 km/h (0 Bft) SW 216 0 min 0,000 mm 0,0 UV-I 0 W/m -4,4 C -1,7 C 0,0 km/h (0 Bft) 0,00 %
29.01.2015 03:00 -1,6 C 81 % 999,0 hPa 0,0 l/m 0,0 km/h (0 Bft) SW 222 0 min 0,000 mm 0,0 UV-I 0 W/m -4,4 C -1,6 C 0,0 km/h (0 Bft) 0,00 %
29.01.2015 03:15 -1,2 C 82 % 998,7 hPa 0,0 l/m 0,0 km/h (0 Bft) S-SW 208 0 min 0,000 mm 0,0 UV-I 0 W/m -3,9 C -1,2 C 0,0 km/h (0 Bft) 0,00 %
29.01.2015 03:30 -0,9 C 82 % 998,7 hPa 0,0 l/m 0,0 km/h (0 Bft) S-SW 210 0 min 0,000 mm 0,0 UV-I 0 W/m -3,6 C -0,9 C 0,0 km/h (0 Bft) 0,00 %
29.01.2015 03:45 -0,5 C 81 % 998,4 hPa 0,0 l/m 0,0 km/h (0 Bft) SW 235 0 min 0,000 mm 0,0 UV-I 0 W/m -3,3 C -0,5 C 0,0 km/h (0 Bft) 0,00 %
29.01.2015 04:00 -0,4 C 81 % 998,2 hPa 0,0 l/m 0,0 km/h (0 Bft) S 181 0 min 0,000 mm 0,0 UV-I 0 W/m -3,3 C -0,4 C 0,0 km/h (0 Bft) 0,00 %
29.01.2015 04:15 -0,4 C 81 % 998,1 hPa 0,0 l/m 0,0 km/h (0 Bft) S-SW 203 0 min 0,000 mm 0,0 UV-I 0 W/m -3,3 C -0,4 C 0,0 km/h (0 Bft) 0,00 %
29.01.2015 04:30 -0,4 C 81 % 998,3 hPa 0,0 l/m 0,0 km/h (0 Bft) O-SO 106 0 min 0,000 mm 0,0 UV-I 0 W/m -3,3 C -0,4 C 0,0 km/h (0 Bft) 0,00 %
29.01.2015 04:45 -0,5 C 82 % 998,1 hPa 0,0 l/m 0,0 km/h (0 Bft) S 184 0 min 0,000 mm 0,0 UV-I 0 W/m -3,2 C -0,5 C 0,0 km/h (0 Bft) 0,00 %
29.01.2015 05:00 -0,5 C 82 % 997,9 hPa 0,0 l/m 0,0 km/h (0 Bft) S-SW 192 0 min 0,000 mm 0,0 UV-I 0 W/m -3,2 C -0,5 C 0,0 km/h (0 Bft) 0,00 %
29.01.2015 05:15 -0,4 C 82 % 998,0 hPa 0,0 l/m 0,0 km/h (0 Bft) SW 214 0 min 0,000 mm 0,0 UV-I 0 W/m -3,1 C -0,4 C 0,0 km/h (0 Bft) 0,00 %
29.01.2015 05:30 -0,1 C 82 % 998,2 hPa 0,0 l/m 0,0 km/h (0 Bft) W-SW 254 0 min 0,000 mm 0,0 UV-I 0 W/m -2,8 C -0,1 C 0,0 km/h (0 Bft) 0,00 %
29.01.2015 05:45 0,4 C 81 % 998,0 hPa 0,0 l/m 0,0 km/h (0 Bft) SW 220 0 min 0,000 mm 0,0 UV-I 0 W/m -2,5 C 0,4 C 0,0 km/h (0 Bft) 0,00 %
29.01.2015 06:00 0,7 C 80 % 997,8 hPa 0,0 l/m 0,4 km/h (0 Bft) N 357 0 min 0,000 mm 0,0 UV-I 0 W/m -2,3 C 0,7 C 4,0 km/h (1 Bft) 0,00 %
29.01.2015 06:15 0,8 C 80 % 998,0 hPa 0,0 l/m 1,4 km/h (1 Bft) N-NW 347 0 min 0,000 mm 0,0 UV-I 0 W/m -2,2 C 0,8 C 4,0 km/h (1 Bft) 0,00 %
29.01.2015 06:30 0,9 C 80 % 998,1 hPa 0,0 l/m 5,4 km/h (1 Bft) W-SW 251 0 min 0,000 mm 0,0 UV-I 0 W/m -2,2 C 0,9 C 11,9 km/h (2 Bft) 0,00 %
29.01.2015 06:45 0,9 C 80 % 998,1 hPa 0,0 l/m 0,4 km/h (0 Bft) S-SO 163 0 min 0,000 mm 0,0 UV-I 0 W/m -2,2 C 0,9 C 4,0 km/h (1 Bft) 0,00 %
29.01.2015 07:00 0,8 C 80 % 998,2 hPa 0,0 l/m 0,4 km/h (0 Bft) W-SW 253 0 min 0,000 mm 0,0 UV-I 0 W/m -2,2 C 0,8 C 4,0 km/h (1 Bft) 0,00 %
29.01.2015 07:15 0,7 C 80 % 998,4 hPa 0,0 l/m 0,4 km/h (0 Bft) O-NO 67 0 min 0,000 mm 0,0 UV-I 0 W/m -2,3 C 0,7 C 4,0 km/h (1 Bft) 0,00 %
29.01.2015 07:30 0,7 C 80 % 998,5 hPa 0,0 l/m 2,2 km/h (1 Bft) W-SW 253 0 min 0,000 mm 0,0 UV-I 0 W/m -2,3 C 0,7 C 4,0 km/h (1 Bft) 0,00 %
29.01.2015 07:45 0,6 C 80 % 998,5 hPa 0,0 l/m 0,4 km/h (0 Bft) W 262 0 min 0,000 mm 0,0 UV-I 0 W/m -2,4 C 0,6 C 4,0 km/h (1 Bft) 0,00 %
29.01.2015 08:00 0,6 C 80 % 998,9 hPa 0,0 l/m 0,0 km/h (0 Bft) SW 228 0 min 0,000 mm 0,0 UV-I 5 W/m -2,4 C 0,6 C 0,0 km/h (0 Bft) 0,00 %
29.01.2015 08:15 0,6 C 80 % 998,9 hPa 0,0 l/m 0,7 km/h (0 Bft) W 281 0 min 0,000 mm 0,0 UV-I 11 W/m -2,4 C 0,6 C 4,0 km/h (1 Bft) 0,00 %
29.01.2015 08:30 0,5 C 80 % 999,2 hPa 0,0 l/m 0,0 km/h (0 Bft) SW 229 0 min 0,000 mm 0,0 UV-I 19 W/m -2,5 C 0,5 C 0,0 km/h (0 Bft) 0,00 %
29.01.2015 08:45 0,4 C 80 % 999,0 hPa 0,0 l/m 0,0 km/h (0 Bft) SW 228 0 min 0,000 mm 1,0 UV-I 34 W/m -2,6 C 0,4 C 0,0 km/h (0 Bft) 0,00 %
29.01.2015 09:00 0,4 C 80 % 999,0 hPa 0,0 l/m 0,0 km/h (0 Bft) SW 221 0 min 0,000 mm 1,0 UV-I 62 W/m -2,6 C 0,4 C 0,0 km/h (0 Bft) 0,00 %
29.01.2015 09:15 0,4 C 80 % 999,1 hPa 0,0 l/m 2,9 km/h (1 Bft) W-SW 245 0 min 0,000 mm 1,0 UV-I 59 W/m -2,6 C 0,4 C 7,9 km/h (2 Bft) 0,00 %
29.01.2015 09:30 0,6 C 80 % 998,9 hPa 0,6 l/m 0,4 km/h (0 Bft) S 172 0 min 0,000 mm 1,0 UV-I 90 W/m -2,4 C 0,6 C 4,0 km/h (1 Bft) 0,00 %
29.01.2015 09:45 0,7 C 77 % 999,0 hPa 0,0 l/m 2,9 km/h (1 Bft) W-SW 256 0 min 0,000 mm 1,0 UV-I 79 W/m -2,9 C 0,7 C 4,0 km/h (1 Bft) 0,00 %
29.01.2015 10:00 0,8 C 73 % 999,1 hPa 0,0 l/m 1,4 km/h (1 Bft) W-SW 256 0 min 0,000 mm 1,0 UV-I 123 W/m -3,5 C 0,8 C 4,0 km/h (1 Bft) 0,00 %
29.01.2015 10:15 0,8 C 72 % 999,1 hPa 0,0 l/m 2,9 km/h (1 Bft) W-SW 242 0 min 0,000 mm 1,0 UV-I 145 W/m -3,7 C 0,8 C 4,0 km/h (1 Bft) 0,00 %
29.01.2015 10:30 0,6 C 72 % 999,1 hPa 0,3 l/m 1,8 km/h (1 Bft) W-SW 255 0 min 0,000 mm 2,0 UV-I 133 W/m -3,9 C 0,6 C 4,0 km/h (1 Bft) 0,00 %
29.01.2015 10:45 0,8 C 71 % 998,7 hPa 0,3 l/m 0,0 km/h (0 Bft) W-SW 254 0 min 0,000 mm 2,0 UV-I 146 W/m -3,8 C 0,8 C 0,0 km/h (0 Bft) 0,00 %
29.01.2015 11:00 1,1 C 70 % 998,5 hPa 0,3 l/m 0,0 km/h (0 Bft) S-SW 202 0 min 0,000 mm 2,0 UV-I 143 W/m -3,7 C 1,1 C 0,0 km/h (0 Bft) 0,00 %
29.01.2015 11:15 1,2 C 70 % 998,3 hPa 0,3 l/m 0,0 km/h (0 Bft) S-SW 192 0 min 0,000 mm 2,0 UV-I 149 W/m -3,7 C 1,2 C 0,0 km/h (0 Bft) 0,00 %
29.01.2015 11:30 1,3 C 70 % 998,1 hPa 0,3 l/m 2,2 km/h (1 Bft) W-SW 252 0 min 0,000 mm 2,0 UV-I 180 W/m -3,6 C 1,3 C 4,0 km/h (1 Bft) 0,00 %
29.01.2015 11:45 1,7 C 69 % 997,4 hPa 0,3 l/m 0,4 km/h (0 Bft) N-NW 332 0 min 0,000 mm 2,0 UV-I 193 W/m -3,4 C 1,7 C 4,0 km/h (1 Bft) 0,00 %
29.01.2015 12:00 2,4 C 67 % 997,1 hPa 0,3 l/m 0,0 km/h (0 Bft) W-SW 254 15 min 0,000 mm 2,0 UV-I 293 W/m -3,1 C 2,4 C 0,0 km/h (0 Bft) 0,00 %
29.01.2015 12:15 2,1 C 68 % 996,8 hPa 0,0 l/m 4,7 km/h (1 Bft) W-SW 256 0 min 0,000 mm 2,0 UV-I 189 W/m -3,2 C 2,1 C 7,9 km/h (2 Bft) 0,00 %
29.01.2015 12:30 2,0 C 69 % 996,4 hPa 0,3 l/m 0,0 km/h (0 Bft) S-SW 202 0 min 0,000 mm 2,0 UV-I 175 W/m -3,1 C 2,0 C 0,0 km/h (0 Bft) 0,00 %
29.01.2015 12:45 2,2 C 69 % 995,8 hPa 0,3 l/m 0,0 km/h (0 Bft) S-SW 207 0 min 0,000 mm 2,0 UV-I 171 W/m -2,9 C 2,2 C 0,0 km/h (0 Bft) 0,00 %
29.01.2015 13:00 2,4 C 68 % 995,4 hPa 0,0 l/m 0,0 km/h (0 Bft) W-SW 258 0 min 0,000 mm 2,0 UV-I 177 W/m -2,9 C 2,4 C 0,0 km/h (0 Bft) 0,00 %
29.01.2015 13:15 2,0 C 69 % 995,0 hPa 0,0 l/m 0,0 km/h (0 Bft) S-SW 194 0 min 0,000 mm 2,0 UV-I 130 W/m -3,1 C 2,0 C 0,0 km/h (0 Bft) 0,00 %
29.01.2015 13:30 1,7 C 70 % 994,7 hPa 0,0 l/m 0,0 km/h (0 Bft) O-SO 105 0 min 0,000 mm 2,0 UV-I 103 W/m -3,2 C 1,7 C 0,0 km/h (0 Bft) 0,00 %
29.01.2015 13:45 1,1 C 72 % 994,2 hPa 0,0 l/m 4,7 km/h (1 Bft) O 99 0 min 0,000 mm 2,0 UV-I 107 W/m -3,4 C 1,1 C 7,9 km/h (2 Bft) 0,00 %
29.01.2015 14:00 1,1 C 72 % 993,8 hPa 0,3 l/m 0,0 km/h (0 Bft) S 172 0 min 0,000 mm 1,0 UV-I 87 W/m -3,4 C 1,1 C 0,0 km/h (0 Bft) 0,00 %
29.01.2015 14:15 1,1 C 71 % 993,8 hPa 0,0 l/m 0,0 km/h (0 Bft) S 183 0 min 0,000 mm 1,0 UV-I 103 W/m -3,6 C 1,1 C 0,0 km/h (0 Bft) 0,00 %
29.01.2015 14:30 1,4 C 71 % 993,3 hPa 0,0 l/m 2,2 km/h (1 Bft) SO 140 0 min 0,000 mm 1,0 UV-I 152 W/m -3,3 C 1,4 C 4,0 km/h (1 Bft) 0,00 %
29.01.2015 14:45 1,2 C 72 % 993,1 hPa 0,0 l/m 0,0 km/h (0 Bft) S 179 0 min 0,000 mm 1,0 UV-I 117 W/m -3,3 C 1,2 C 0,0 km/h (0 Bft) 0,00 %
29.01.2015 15:00 1,2 C 72 % 992,8 hPa 0,0 l/m 0,0 km/h (0 Bft) S-SO 160 0 min 0,000 mm 1,0 UV-I 115 W/m -3,3 C 1,2 C 0,0 km/h (0 Bft) 0,00 %
29.01.2015 15:15 1,0 C 73 % 992,4 hPa 0,0 l/m 5,8 km/h (2 Bft) SO 133 0 min 0,000 mm 1,0 UV-I 91 W/m -3,3 C 1,0 C 7,9 km/h (2 Bft) 0,00 %
29.01.2015 15:30 0,8 C 73 % 992,1 hPa 0,0 l/m 3,2 km/h (1 Bft) O-SO 119 0 min 0,000 mm 1,0 UV-I 82 W/m -3,5 C 0,8 C 4,0 km/h (1 Bft) 0,00 %
29.01.2015 15:45 0,7 C 74 % 991,7 hPa 0,0 l/m 2,2 km/h (1 Bft) SO 129 0 min 0,000 mm 1,0 UV-I 54 W/m -3,4 C 0,7 C 7,9 km/h (2 Bft) 0,00 %
29.01.2015 16:00 0,5 C 74 % 991,4 hPa 0,0 l/m 2,9 km/h (1 Bft) SO 127 0 min 0,000 mm 0,0 UV-I 41 W/m -3,6 C 0,5 C 4,0 km/h (1 Bft) 0,00 %
29.01.2015 16:15 0,3 C 76 % 991,2 hPa 0,0 l/m 1,4 km/h (1 Bft) O 82 0 min 0,000 mm 0,0 UV-I 28 W/m -3,4 C 0,3 C 4,0 km/h (1 Bft) 0,00 %
29.01.2015 16:30 0,1 C 76 % 991,3 hPa 0,0 l/m 0,0 km/h (0 Bft) S 172 0 min 0,000 mm 0,0 UV-I 17 W/m -3,6 C 0,1 C 0,0 km/h (0 Bft) 0,00 %
29.01.2015 16:45 -0,1 C 76 % 990,9 hPa 0,0 l/m 5,8 km/h (2 Bft) O-SO 118 0 min 0,000 mm 0,0 UV-I 2 W/m -3,8 C -0,1 C 7,9 km/h (2 Bft) 0,00 %
29.01.2015 17:00 -0,3 C 76 % 990,6 hPa 0,0 l/m 1,8 km/h (1 Bft) O-SO 113 0 min 0,000 mm 0,0 UV-I 0 W/m -4,0 C -0,3 C 4,0 km/h (1 Bft) 0,00 %
29.01.2015 17:15 -0,4 C 76 % 990,4 hPa 0,0 l/m 5,4 km/h (1 Bft) O-SO 121 0 min 0,000 mm 0,0 UV-I 0 W/m -4,1 C -0,4 C 7,9 km/h (2 Bft) 0,00 %
29.01.2015 17:30 -0,5 C 76 % 990,2 hPa 0,0 l/m 0,7 km/h (0 Bft) O-SO 103 0 min 0,000 mm 0,0 UV-I 0 W/m -4,2 C -0,5 C 4,0 km/h (1 Bft) 0,00 %
29.01.2015 17:45 -0,5 C 77 % 989,5 hPa 0,0 l/m 5,8 km/h (2 Bft) O-SO 120 0 min 0,000 mm 0,0 UV-I 0 W/m -4,0 C -0,5 C 7,9 km/h (2 Bft) 0,00 %
29.01.2015 18:00 -0,4 C 76 % 989,1 hPa 0,0 l/m 0,4 km/h (0 Bft) S 175 0 min 0,000 mm 0,0 UV-I 0 W/m -4,1 C -0,4 C 4,0 km/h (1 Bft) 0,00 %
29.01.2015 18:15 -0,4 C 75 % 988,8 hPa 0,0 l/m 4,3 km/h (1 Bft) S 171 0 min 0,000 mm 0,0 UV-I 0 W/m -4,3 C -0,4 C 7,9 km/h (2 Bft) 0,00 %
29.01.2015 18:30 -0,4 C 75 % 988,4 hPa 0,0 l/m 1,4 km/h (1 Bft) S 174 0 min 0,000 mm 0,0 UV-I 0 W/m -4,3 C -0,4 C 4,0 km/h (1 Bft) 0,00 %
29.01.2015 18:45 -0,5 C 75 % 988,1 hPa 0,0 l/m 5,4 km/h (1 Bft) O 97 0 min 0,000 mm 0,0 UV-I 0 W/m -4,4 C -0,5 C 7,9 km/h (2 Bft) 0,00 %
29.01.2015 19:00 -0,6 C 77 % 987,8 hPa 0,0 l/m 5,8 km/h (2 Bft) O-SO 109 0 min 0,000 mm 0,0 UV-I 0 W/m -4,1 C -0,6 C 7,9 km/h (2 Bft) 0,00 %
29.01.2015 19:15 -0,8 C 76 % 987,1 hPa 0,0 l/m 0,0 km/h (0 Bft) O 91 0 min 0,000 mm 0,0 UV-I 0 W/m -4,5 C -0,8 C 0,0 km/h (0 Bft) 0,00 %
29.01.2015 19:30 -1,2 C 77 % 986,9 hPa 0,0 l/m 4,0 km/h (1 Bft) NO 56 0 min 0,000 mm 0,0 UV-I 0 W/m -4,7 C -1,2 C 7,9 km/h (2 Bft) 0,00 %
29.01.2015 19:45 -1,5 C 79 % 986,3 hPa 0,0 l/m 0,4 km/h (0 Bft) S 173 0 min 0,000 mm 0,0 UV-I 0 W/m -4,7 C -1,5 C 4,0 km/h (1 Bft) 0,00 %
29.01.2015 20:00 -1,8 C 80 % 986,0 hPa 0,0 l/m 0,0 km/h (0 Bft) S 177 0 min 0,000 mm 0,0 UV-I 0 W/m -4,8 C -1,8 C 0,0 km/h (0 Bft) 0,00 %
29.01.2015 20:15 -1,9 C 80 % 985,3 hPa 0,0 l/m 3,2 km/h (1 Bft) O-SO 116 0 min 0,000 mm 0,0 UV-I 0 W/m -4,9 C -1,9 C 4,0 km/h (1 Bft) 0,00 %
29.01.2015 20:30 -1,7 C 80 % 984,5 hPa 0,0 l/m 5,4 km/h (1 Bft) O 101 0 min 0,000 mm 0,0 UV-I 0 W/m -4,7 C -1,7 C 11,9 km/h (2 Bft) 0,00 %
29.01.2015 20:45 -1,7 C 80 % 984,0 hPa 0,0 l/m 0,4 km/h (0 Bft) O-SO 115 0 min 0,000 mm 0,0 UV-I 0 W/m -4,7 C -1,7 C 4,0 km/h (1 Bft) 0,00 %
29.01.2015 21:00 -1,9 C 80 % 983,6 hPa 0,0 l/m 1,8 km/h (1 Bft) O 85 0 min 0,000 mm 0,0 UV-I 0 W/m -4,9 C -1,9 C 4,0 km/h (1 Bft) 0,00 %
29.01.2015 21:15 -1,5 C 79 % 983,2 hPa 0,0 l/m 0,7 km/h (0 Bft) S 169 0 min 0,000 mm 0,0 UV-I 0 W/m -4,7 C -1,5 C 4,0 km/h (1 Bft) 0,00 %
29.01.2015 21:30 -1,5 C 77 % 982,4 hPa 0,0 l/m 0,7 km/h (0 Bft) S-SO 161 0 min 0,000 mm 0,0 UV-I 0 W/m -5,0 C -1,5 C 4,0 km/h (1 Bft) 0,00 %
29.01.2015 21:45 -1,6 C 78 % 981,7 hPa 0,0 l/m 1,8 km/h (1 Bft) O-SO 113 0 min 0,000 mm 0,0 UV-I 0 W/m -4,9 C -1,6 C 4,0 km/h (1 Bft) 0,00 %
29.01.2015 22:00 -1,7 C 77 % 981,2 hPa 0,0 l/m 3,2 km/h (1 Bft) O-SO 111 0 min 0,000 mm 0,0 UV-I 0 W/m -5,2 C -1,7 C 4,0 km/h (1 Bft) 0,00 %
29.01.2015 22:15 -2,0 C 77 % 980,9 hPa 0,0 l/m 1,8 km/h (1 Bft) O 89 0 min 0,000 mm 0,0 UV-I 0 W/m -5,5 C -2,0 C 4,0 km/h (1 Bft) 0,00 %
29.01.2015 22:30 -1,8 C 76 % 980,3 hPa 0,0 l/m 2,9 km/h (1 Bft) O-SO 111 0 min 0,000 mm 0,0 UV-I 0 W/m -5,5 C -1,8 C 4,0 km/h (1 Bft) 0,00 %
29.01.2015 22:45 -1,9 C 76 % 979,7 hPa 0,0 l/m 4,7 km/h (1 Bft) O 90 0 min 0,000 mm 0,0 UV-I 0 W/m -5,6 C -1,9 C 7,9 km/h (2 Bft) 0,00 %
29.01.2015 23:00 -1,8 C 76 % 979,0 hPa 0,0 l/m 1,8 km/h (1 Bft) SO 133 0 min 0,000 mm 0,0 UV-I 0 W/m -5,5 C -1,8 C 4,0 km/h (1 Bft) 0,00 %
29.01.2015 23:15 -1,9 C 76 % 978,8 hPa 0,0 l/m 0,4 km/h (0 Bft) SO 139 0 min 0,000 mm 0,0 UV-I 0 W/m -5,6 C -1,9 C 4,0 km/h (1 Bft) 0,00 %
29.01.2015 23:30 -1,7 C 75 % 978,2 hPa 0,0 l/m 4,3 km/h (1 Bft) O-SO 103 0 min 0,000 mm 0,0 UV-I 0 W/m -5,5 C -1,7 C 7,9 km/h (2 Bft) 0,00 %
29.01.2015 23:45 -1,5 C 74 % 977,9 hPa 0,0 l/m 5,4 km/h (1 Bft) O 94 0 min 0,000 mm 0,0 UV-I 0 W/m -5,5 C -1,5 C 7,9 km/h (2 Bft) 0,00 %
_ Min-Zeit 00:00 12:00 23:45 - 00:00 - - - - - - 00:00 00:00 00:00 00:00
Minimum _ -2,6 C 67 % 977,9 hPa - 0,0 km/h (0 Bft) - - - - - - -6,1 C -2,6 C 0,0 km/h (0 Bft) 0,00 %
_ Max-Zeit 12:00 02:30 00:00 09:30 15:15 - - 12:00 00:00 10:30 12:00 06:30 12:00 06:30 00:00
Maximum _ 2,4 C 82 % 1001,2 hPa 0,6 l/m 5,8 km/h
SO (2 Bft)
- - 15 min 0,000 mm 2,0 UV-I 293 W/m -2,2 C 2,4 C 11,9 km/h
W-SW (2 Bft)
0,00 %
Durchschnitt _ -0,2 C 77 % 993,6 hPa #3,6 l/m 1,4 km/h (1 Bft) O-SO - #15 min. #0,000 mm 1,5 UV-I 106 W/m -3,8 C -0,2 C 3,0 km/h (1 Bft) 0,00 %